createdAt,value
2019-04-11T00:01:10.079Z,5.37
2019-04-11T00:03:39.766Z,5.17
2019-04-11T00:06:09.565Z,5.40
2019-04-11T00:08:39.142Z,5.42
2019-04-11T00:11:09.470Z,5.75
2019-04-11T00:13:41.109Z,5.72
2019-04-11T00:16:11.526Z,4.97
2019-04-11T00:18:41.145Z,4.83
2019-04-11T00:21:12.826Z,5.47
2019-04-11T00:23:46.009Z,5.10
2019-04-11T00:26:16.002Z,5.00
2019-04-11T00:28:50.004Z,5.03
2019-04-11T00:31:20.896Z,5.20
2019-04-11T00:33:50.840Z,5.55
2019-04-11T00:36:20.218Z,5.50
2019-04-11T00:38:52.321Z,5.30
2019-04-11T00:41:28.131Z,5.22
2019-04-11T00:44:08.312Z,4.97
2019-04-11T00:46:46.645Z,4.83
2019-04-11T00:49:19.015Z,5.30
2019-04-11T00:51:50.569Z,4.97
2019-04-11T00:54:20.036Z,5.85
2019-04-11T00:56:50.975Z,5.42
2019-04-11T00:59:22.454Z,5.25
2019-04-11T01:01:51.960Z,5.40
2019-04-11T01:04:21.324Z,5.55
2019-04-11T01:06:50.655Z,5.10
2019-04-11T01:09:20.139Z,5.22
2019-04-11T01:11:50.356Z,5.47
2019-04-11T01:14:19.840Z,5.83
2019-04-11T01:16:56.928Z,5.58
2019-04-11T01:19:26.866Z,5.28
2019-04-11T01:21:58.062Z,5.08
2019-04-11T01:24:29.321Z,4.60
2019-04-11T01:27:01.476Z,5.22
2019-04-11T01:29:31.492Z,5.42
2019-04-11T01:32:04.275Z,5.28
2019-04-11T01:34:34.991Z,5.40
2019-04-11T01:37:04.982Z,5.83
2019-04-11T01:39:38.830Z,5.35
2019-04-11T01:42:09.122Z,5.65
2019-04-11T01:44:38.895Z,5.25
2019-04-11T01:47:10.818Z,4.95
2019-04-11T01:49:40.685Z,5.33
2019-04-11T01:52:10.094Z,5.10
2019-04-11T01:54:39.619Z,5.28
2019-04-11T01:57:09.704Z,5.45
2019-04-11T01:59:39.618Z,4.58
2019-04-11T02:02:22.838Z,5.00
2019-04-11T02:04:54.379Z,5.08
2019-04-11T02:07:24.869Z,5.20
2019-04-11T02:09:54.764Z,5.03
2019-04-11T02:12:24.428Z,4.78
2019-04-11T02:14:53.772Z,5.00
2019-04-11T02:17:24.324Z,5.30
2019-04-11T02:19:53.848Z,4.90
2019-04-11T02:22:36.643Z,4.90
2019-04-11T02:25:12.247Z,5.33
2019-04-11T02:27:42.302Z,4.95
2019-04-11T02:30:14.214Z,4.67
2019-04-11T02:32:44.915Z,4.83
2019-04-11T02:35:15.421Z,4.67
2019-04-11T02:37:47.662Z,5.35
2019-04-11T02:40:17.634Z,4.65
2019-04-11T02:42:47.673Z,5.00
2019-04-11T02:45:31.289Z,4.97
2019-04-11T02:47:50.989Z,4.72
2019-04-11T02:50:23.397Z,4.72
2019-04-11T02:52:51.984Z,3.80
2019-04-11T02:55:21.763Z,4.65
2019-04-11T02:57:51.909Z,4.62
2019-04-11T03:00:21.533Z,4.30
2019-04-11T03:02:53.104Z,4.58
2019-04-11T03:05:22.124Z,4.62
2019-04-11T03:07:51.712Z,4.67
2019-04-11T03:10:21.420Z,4.70
2019-04-11T03:12:52.524Z,4.47
2019-04-11T03:15:37.496Z,4.33
2019-04-11T03:18:02.908Z,4.28
2019-04-11T03:20:38.270Z,4.35
2019-04-11T03:23:05.580Z,4.50
2019-04-11T03:25:33.903Z,4.58
2019-04-11T03:28:04.950Z,4.85
2019-04-11T03:30:57.499Z,4.65
2019-04-11T03:38:31.402Z,4.40
2019-04-11T03:40:57.667Z,4.60
2019-04-11T03:43:26.155Z,4.87
2019-04-11T03:46:03.793Z,4.62
2019-04-11T03:48:29.048Z,5.10
2019-04-11T03:50:46.773Z,4.90
2019-04-11T03:53:19.266Z,4.40
2019-04-11T03:55:49.575Z,4.85
2019-04-11T03:58:19.754Z,4.97
2019-04-11T04:00:53.443Z,4.90
2019-04-11T04:03:22.512Z,4.70
2019-04-11T04:05:54.913Z,4.28
2019-04-11T04:08:25.186Z,4.72
2019-04-11T04:11:08.303Z,5.40
2019-04-11T04:13:39.753Z,5.47
2019-04-11T04:16:18.775Z,5.30
2019-04-11T04:18:54.236Z,4.85
2019-04-11T04:21:30.986Z,4.37
2019-04-11T04:24:03.714Z,5.40
2019-04-11T04:26:33.694Z,4.72
2019-04-11T04:29:04.611Z,5.22
2019-04-11T04:31:35.043Z,5.00
2019-04-11T04:34:04.752Z,5.28
2019-04-11T04:36:34.831Z,5.12
2019-04-11T04:39:05.735Z,5.22
2019-04-11T04:41:41.350Z,5.72
2019-04-11T04:44:08.603Z,5.37
2019-04-11T04:46:52.509Z,5.10
2019-04-11T04:49:11.054Z,5.22
2019-04-11T04:51:41.542Z,5.55
2019-04-11T04:54:12.139Z,5.25
2019-04-11T04:56:43.133Z,5.70
2019-04-11T04:59:14.610Z,4.60
2019-04-11T05:01:44.310Z,5.58
2019-04-11T05:04:15.779Z,5.17
2019-04-11T05:06:48.234Z,5.17
2019-04-11T05:09:17.778Z,5.20
2019-04-11T05:11:48.606Z,5.78
2019-04-11T05:14:18.897Z,5.37
2019-04-11T05:16:48.356Z,5.55
2019-04-11T05:19:19.032Z,5.85
2019-04-11T05:21:49.821Z,5.75
2019-04-11T05:24:19.356Z,5.85
2019-04-11T05:26:48.716Z,5.85
2019-04-11T05:29:18.129Z,5.55
2019-04-11T05:31:47.459Z,5.85
2019-04-11T05:34:16.821Z,5.30
2019-04-11T05:36:53.300Z,5.87
2019-04-11T05:39:23.410Z,5.55
2019-04-11T05:41:54.531Z,5.45
2019-04-11T05:44:24.983Z,5.87
2019-04-11T05:46:58.944Z,5.60
2019-04-11T05:49:29.067Z,5.50
2019-04-11T05:52:06.090Z,5.15
2019-04-11T05:54:47.614Z,5.62
2019-04-11T05:57:15.648Z,5.65
2019-04-11T05:59:50.929Z,5.60
2019-04-11T06:02:22.677Z,5.28
2019-04-11T06:05:00.492Z,6.10
2019-04-11T06:10:43.670Z,6.10
2019-04-11T06:16:00.638Z,5.53
2019-04-11T06:18:34.495Z,6.40
2019-04-11T06:21:15.728Z,5.65
2019-04-11T06:23:47.751Z,5.78
2019-04-11T06:26:37.175Z,6.78
2019-04-11T06:29:16.401Z,6.47
2019-04-11T06:31:40.863Z,6.33
2019-04-11T06:34:11.263Z,6.15
2019-04-11T06:36:43.787Z,6.20
2019-04-11T06:39:15.548Z,5.75
2019-04-11T06:42:04.110Z,5.00
2019-04-11T06:44:46.092Z,5.05
2019-04-11T06:47:25.024Z,5.33
2019-04-11T06:49:56.142Z,5.60
2019-04-11T06:52:28.639Z,5.50
2019-04-11T06:54:59.879Z,5.08
2019-04-11T06:57:32.021Z,5.67
2019-04-11T07:00:03.258Z,6.62
2019-04-11T07:02:35.487Z,6.05
2019-04-11T07:05:09.085Z,6.25
2019-04-11T07:07:40.935Z,5.90
2019-04-11T07:10:11.645Z,5.67
2019-04-11T07:12:42.879Z,6.22
2019-04-11T07:15:16.953Z,5.30
2019-04-11T07:18:06.254Z,5.78
2019-04-11T07:20:37.788Z,5.42
2019-04-11T07:23:26.454Z,5.90
2019-04-11T07:25:58.109Z,5.00
2019-04-11T07:28:41.660Z,5.30
2019-04-11T07:31:21.341Z,5.35
2019-04-11T07:37:21.242Z,5.65
2019-04-11T07:40:09.440Z,5.85
2019-04-11T07:42:46.880Z,5.05
2019-04-11T07:45:37.703Z,4.87
2019-04-11T07:48:15.031Z,5.40
2019-04-11T07:50:44.610Z,4.92
2019-04-11T07:53:15.580Z,4.80
2019-04-11T07:55:46.512Z,4.97
2019-04-11T07:58:17.722Z,4.60
2019-04-11T08:01:05.253Z,5.50
2019-04-11T08:03:53.609Z,4.92
2019-04-11T08:06:33.478Z,5.35
2019-04-11T08:09:22.115Z,4.92
2019-04-11T08:11:53.263Z,5.08
2019-04-11T08:14:42.582Z,5.60
2019-04-11T08:17:27.964Z,4.83
2019-04-11T08:19:53.233Z,4.50
2019-04-11T08:22:25.202Z,4.03
2019-04-11T08:25:09.113Z,4.20
2019-04-11T08:27:52.131Z,4.47
2019-04-11T08:30:12.586Z,3.30
2019-04-11T08:33:00.345Z,3.08
2019-04-11T08:35:33.182Z,3.27
2019-04-11T08:38:10.177Z,2.62
2019-04-11T08:40:45.213Z,3.70
2019-04-11T08:43:19.286Z,5.95
2019-04-11T08:46:08.868Z,2.77
2019-04-11T08:48:49.054Z,2.42
2019-04-11T08:51:20.071Z,1.50
2019-04-11T08:53:55.014Z,1.80
2019-04-11T08:56:25.080Z,1.40
2019-04-11T08:59:13.454Z,1.70
2019-04-11T09:01:44.282Z,1.40
2019-04-11T09:04:26.006Z,1.72
2019-04-11T09:06:56.983Z,1.30
2019-04-11T09:09:36.275Z,1.25
2019-04-11T09:12:12.828Z,1.52
2019-04-11T09:14:45.044Z,1.67
2019-04-11T09:17:16.540Z,1.47
2019-04-11T09:19:51.396Z,1.52
2019-04-11T09:22:41.485Z,1.50
2019-04-11T09:25:30.505Z,1.22
2019-04-11T09:28:05.044Z,2.60
2019-04-11T09:30:45.262Z,1.40
2019-04-11T09:33:17.258Z,1.40
2019-04-11T09:36:05.853Z,1.50
2019-04-11T09:38:49.175Z,1.32
2019-04-11T09:41:36.512Z,1.17
2019-04-11T09:44:10.615Z,1.25
2019-04-11T09:46:54.866Z,1.30
2019-04-11T09:49:27.149Z,1.12
2019-04-11T09:51:58.368Z,1.07
2019-04-11T09:54:36.535Z,1.10
2019-04-11T09:57:07.937Z,1.10
2019-04-11T09:59:45.512Z,1.27
2019-04-11T10:02:16.871Z,1.35
2019-04-11T10:04:48.116Z,1.50
2019-04-11T10:07:19.624Z,1.52
2019-04-11T10:10:02.775Z,1.30
2019-04-11T10:12:40.522Z,1.27
2019-04-11T10:15:11.489Z,1.35
2019-04-11T10:17:59.068Z,1.37
2019-04-11T10:20:28.828Z,1.17
2019-04-11T10:23:10.242Z,1.42
2019-04-11T10:25:41.119Z,1.90
2019-04-11T10:28:30.379Z,1.40
2019-04-11T10:31:08.599Z,1.30
2019-04-11T10:33:39.858Z,1.30
2019-04-11T10:36:25.657Z,1.15
2019-04-11T10:39:13.213Z,1.20
2019-04-11T10:41:56.272Z,1.27
2019-04-11T10:44:27.324Z,1.12
2019-04-11T10:46:58.362Z,1.40
2019-04-11T10:49:30.362Z,1.00
2019-04-11T10:52:04.505Z,1.00
2019-04-11T10:54:35.239Z,1.17
2019-04-11T10:57:18.495Z,1.10
2019-04-11T10:59:49.615Z,1.17
2019-04-11T11:02:37.683Z,1.00
2019-04-11T11:05:10.598Z,1.00
2019-04-11T11:07:42.490Z,0.85
2019-04-11T11:10:13.692Z,1.15
2019-04-11T11:12:47.637Z,1.00
2019-04-11T11:15:19.806Z,0.90
2019-04-11T11:18:35.206Z,1.10
2019-04-11T11:20:53.936Z,1.00
2019-04-11T11:23:35.797Z,0.88
2019-04-11T11:26:19.766Z,1.17
2019-04-11T11:29:11.593Z,1.10
2019-04-11T11:31:40.748Z,1.50
2019-04-11T11:34:17.423Z,1.47
2019-04-11T11:36:54.912Z,1.92
2019-04-11T11:39:33.373Z,1.75
2019-04-11T11:42:22.033Z,2.12
2019-04-11T11:44:53.226Z,2.30
2019-04-11T11:47:41.652Z,2.80
2019-04-11T11:50:21.728Z,2.85
2019-04-11T11:53:08.147Z,2.72
2019-04-11T11:58:27.902Z,2.37
2019-04-11T12:01:03.637Z,2.55
2019-04-11T12:03:46.748Z,2.35
2019-04-11T12:06:19.777Z,2.30
2019-04-11T12:09:14.055Z,2.35
2019-04-11T12:11:57.183Z,2.98
2019-04-11T12:14:46.867Z,2.83
2019-04-11T12:17:44.835Z,2.75
2019-04-11T12:20:44.504Z,2.77
2019-04-11T12:23:29.551Z,3.25
2019-04-11T12:26:14.161Z,3.02
2019-04-11T12:28:55.734Z,3.02
2019-04-11T12:31:39.669Z,3.00
2019-04-11T12:34:32.364Z,3.05
2019-04-11T12:37:17.363Z,2.30
2019-04-11T12:39:57.908Z,1.98
2019-04-11T12:42:40.771Z,2.00
2019-04-11T12:45:35.960Z,1.52
2019-04-11T12:48:18.235Z,1.98
2019-04-11T12:51:07.043Z,1.47
2019-04-11T12:53:49.367Z,1.50
2019-04-11T12:56:40.555Z,1.40
2019-04-11T12:59:22.463Z,1.50
2019-04-11T13:02:20.773Z,1.17
2019-04-11T13:05:02.785Z,1.30
2019-04-11T13:07:51.472Z,0.93
2019-04-11T13:10:35.253Z,1.30
2019-04-11T13:13:34.193Z,1.30
2019-04-11T13:16:18.499Z,1.25
2019-04-11T13:19:07.387Z,1.12
2019-04-11T13:21:50.330Z,1.50
2019-04-11T13:24:35.982Z,1.22
2019-04-11T13:27:23.356Z,1.20
2019-04-11T13:30:05.767Z,2.70
2019-04-11T13:32:49.537Z,1.65
2019-04-11T13:35:34.426Z,1.75
2019-04-11T13:41:13.380Z,1.47
2019-04-11T13:43:55.725Z,1.47
2019-04-11T13:46:44.386Z,1.80
2019-04-11T13:49:32.234Z,1.55
2019-04-11T13:52:17.828Z,1.30
2019-04-11T13:55:02.491Z,1.67
2019-04-11T13:57:52.434Z,7.53
2019-04-11T14:00:37.262Z,2.00
2019-04-11T14:03:37.474Z,1.45
2019-04-11T14:06:26.928Z,2.02
2019-04-11T14:09:12.781Z,1.72
2019-04-11T14:11:59.419Z,1.37
2019-04-11T14:14:38.968Z,1.42
2019-04-11T14:17:22.824Z,1.62
2019-04-11T14:20:14.076Z,1.70
2019-04-11T14:23:13.649Z,1.55
2019-04-11T14:25:56.434Z,1.55
2019-04-11T14:28:36.398Z,1.67
2019-04-11T14:31:38.297Z,1.50
2019-04-11T14:34:31.114Z,1.40
2019-04-11T14:37:22.872Z,1.77
2019-04-11T14:40:22.285Z,1.50
2019-04-11T14:43:17.871Z,1.70
2019-04-11T14:46:06.884Z,1.57
2019-04-11T14:48:48.996Z,1.47
2019-04-11T14:51:41.424Z,1.77
2019-04-11T14:54:25.162Z,1.45
2019-04-11T14:57:23.101Z,1.80
2019-04-11T15:00:12.952Z,1.60
2019-04-11T15:02:56.226Z,1.85
2019-04-11T15:05:44.573Z,2.55
2019-04-11T15:08:28.684Z,1.42
2019-04-11T15:11:21.444Z,1.80
2019-04-11T15:14:15.730Z,1.80
2019-04-11T15:16:57.107Z,1.70
2019-04-11T15:19:41.019Z,1.98
2019-04-11T15:22:38.047Z,2.20
2019-04-11T15:25:31.897Z,2.10
2019-04-11T15:28:22.296Z,1.98
2019-04-11T15:31:18.485Z,1.90
2019-04-11T15:34:11.841Z,2.30
2019-04-11T15:40:02.019Z,2.20
2019-04-11T15:42:44.570Z,1.90
2019-04-11T15:45:46.694Z,2.33
2019-04-11T15:48:42.816Z,2.00
2019-04-11T15:51:43.702Z,2.37
2019-04-11T15:54:22.049Z,2.27
2019-04-11T15:57:12.588Z,2.52
2019-04-11T16:00:13.573Z,2.40
2019-04-11T16:02:56.589Z,2.62
2019-04-11T16:05:45.513Z,2.67
2019-04-11T16:08:38.835Z,2.47
2019-04-11T16:11:21.158Z,2.33
2019-04-11T16:14:13.132Z,2.20
2019-04-11T16:17:05.304Z,1.87
2019-04-11T16:19:48.618Z,1.98
2019-04-11T16:22:43.012Z,2.27
2019-04-11T16:25:28.889Z,2.30
2019-04-11T16:28:23.371Z,1.80
2019-04-11T16:31:09.405Z,2.62
2019-04-11T16:33:53.517Z,1.95
2019-04-11T16:36:36.567Z,2.30
2019-04-11T16:39:24.979Z,1.85
2019-04-11T16:42:08.684Z,1.90
2019-04-11T16:45:00.854Z,1.80
2019-04-11T16:47:49.196Z,1.50
2019-04-11T16:50:30.268Z,2.27
2019-04-11T16:53:12.769Z,1.55
2019-04-11T16:55:57.390Z,2.30
2019-04-11T16:58:39.054Z,4.43
2019-04-11T17:01:23.810Z,1.52
2019-04-11T17:04:05.195Z,1.98
2019-04-11T17:06:48.775Z,1.40
2019-04-11T17:09:31.252Z,1.55
2019-04-11T17:12:14.560Z,1.60
2019-04-11T17:15:01.136Z,1.75
2019-04-11T17:17:44.603Z,1.77
2019-04-11T17:20:26.474Z,2.40
2019-04-11T17:22:58.142Z,2.02
2019-04-11T17:25:28.254Z,2.33
2019-04-11T17:27:57.573Z,2.67
2019-04-11T17:30:26.930Z,3.80
2019-04-11T17:32:56.346Z,3.55
2019-04-11T17:35:26.804Z,3.42
2019-04-11T17:37:56.154Z,4.80
2019-04-11T17:40:25.472Z,5.58
2019-04-11T17:42:54.808Z,7.60
2019-04-11T17:45:24.158Z,6.12
2019-04-11T17:47:54.805Z,6.30
2019-04-11T17:50:24.584Z,6.58
2019-04-11T17:52:54.758Z,6.70
2019-04-11T17:55:24.764Z,7.47
2019-04-11T17:57:54.911Z,7.83
2019-04-11T18:00:29.688Z,7.53
2019-04-11T18:02:57.815Z,7.80
2019-04-11T18:05:27.135Z,7.40
2019-04-11T18:07:59.637Z,6.80
2019-04-11T18:10:28.956Z,7.62
2019-04-11T18:13:00.493Z,6.55
2019-04-11T18:15:32.780Z,6.90
2019-04-11T18:18:03.144Z,7.15
2019-04-11T18:20:36.840Z,6.97
2019-04-11T18:23:04.269Z,6.62
2019-04-11T18:25:35.203Z,7.33
2019-04-11T18:28:04.605Z,6.10
2019-04-11T18:30:33.939Z,5.72
2019-04-11T18:33:03.413Z,6.03
2019-04-11T18:35:32.932Z,5.55
2019-04-11T18:38:02.703Z,5.40
2019-04-11T18:40:32.088Z,5.25
2019-04-11T18:43:01.431Z,5.85
2019-04-11T18:45:30.896Z,5.50
2019-04-11T18:48:00.278Z,6.20
2019-04-11T18:50:29.680Z,5.37
2019-04-11T18:53:00.377Z,4.70
2019-04-11T18:55:29.739Z,5.12
2019-04-11T18:58:01.679Z,5.55
2019-04-11T19:00:31.201Z,5.15
2019-04-11T19:03:00.566Z,4.95
2019-04-11T19:05:30.231Z,4.97
2019-04-11T19:08:00.783Z,5.37
2019-04-11T19:10:30.226Z,5.05
2019-04-11T19:12:59.747Z,5.60
2019-04-11T19:15:29.204Z,5.03
2019-04-11T19:18:06.124Z,5.47
2019-04-11T19:20:29.718Z,5.15
2019-04-11T19:22:59.623Z,5.20
2019-04-11T19:25:32.157Z,5.30
2019-04-11T19:28:01.578Z,5.55
2019-04-11T19:30:31.042Z,5.55
2019-04-11T19:33:00.497Z,5.67
2019-04-11T19:35:30.046Z,5.28
2019-04-11T19:37:59.932Z,5.33
2019-04-11T19:40:30.574Z,5.60
2019-04-11T19:43:00.518Z,5.95
2019-04-11T19:45:29.943Z,4.92
2019-04-11T19:47:59.350Z,5.90
2019-04-11T19:50:29.175Z,5.65
2019-04-11T19:53:02.624Z,5.58
2019-04-11T19:55:37.766Z,5.95
2019-04-11T19:58:07.117Z,5.55
2019-04-11T20:00:37.027Z,5.58
2019-04-11T20:03:08.389Z,5.75
2019-04-11T20:05:37.493Z,5.42
2019-04-11T20:08:08.007Z,5.40
2019-04-11T20:10:37.454Z,5.70
2019-04-11T20:13:06.783Z,5.75
2019-04-11T20:15:37.171Z,5.12
2019-04-11T20:18:07.382Z,5.53
2019-04-11T20:20:37.591Z,5.20
2019-04-11T20:23:10.543Z,5.08
2019-04-11T20:25:38.314Z,5.85
2019-04-11T20:28:07.631Z,5.65
2019-04-11T20:30:36.996Z,5.17
2019-04-11T20:33:06.334Z,5.35
2019-04-11T20:35:39.838Z,5.50
2019-04-11T20:38:06.813Z,5.20
2019-04-11T20:40:36.151Z,5.15
2019-04-11T20:43:05.525Z,5.42
2019-04-11T20:45:36.505Z,5.90
2019-04-11T20:48:05.824Z,6.08
2019-04-11T20:50:36.267Z,5.87
2019-04-11T20:53:12.537Z,5.80
2019-04-11T20:55:39.260Z,6.20
2019-04-11T20:58:10.427Z,5.90
2019-04-11T21:00:49.556Z,6.78
2019-04-11T21:03:10.417Z,6.60
2019-04-11T21:05:39.750Z,5.72
2019-04-11T21:08:09.111Z,5.75
2019-04-11T21:10:38.453Z,5.80
2019-04-11T21:13:08.180Z,6.53
2019-04-11T21:15:39.523Z,5.85
2019-04-11T21:18:08.575Z,5.92
2019-04-11T21:20:39.499Z,5.30
2019-04-11T21:23:09.044Z,5.25
2019-04-11T21:25:38.374Z,5.58
2019-04-11T21:28:07.804Z,5.47
2019-04-11T21:30:37.247Z,5.45
2019-04-11T21:33:06.602Z,5.83
2019-04-11T21:35:36.034Z,5.60
2019-04-11T21:38:05.420Z,5.60
2019-04-11T21:40:35.937Z,5.08
2019-04-11T21:43:06.688Z,5.05
2019-04-11T21:45:36.556Z,5.45
2019-04-11T21:48:06.958Z,6.17
2019-04-11T21:50:40.406Z,4.95
2019-04-11T21:53:13.829Z,4.75
2019-04-11T21:55:40.800Z,4.45
2019-04-11T21:58:10.158Z,4.37
2019-04-11T22:00:43.052Z,4.53
2019-04-11T22:03:14.459Z,4.37
2019-04-11T22:05:43.915Z,4.10
2019-04-11T22:08:13.375Z,4.60
2019-04-11T22:10:42.722Z,4.37
2019-04-11T22:13:12.039Z,4.30
2019-04-11T22:15:42.521Z,4.28
2019-04-11T22:18:16.741Z,4.33
2019-04-11T22:20:46.379Z,4.85
2019-04-11T22:23:15.890Z,4.30
2019-04-11T22:25:48.492Z,4.40
2019-04-11T22:28:17.808Z,4.15
2019-04-11T22:30:47.811Z,4.28
2019-04-11T22:33:19.839Z,4.55
2019-04-11T22:35:49.186Z,4.75
2019-04-11T22:38:19.580Z,4.67
2019-04-11T22:40:48.980Z,4.45
2019-04-11T22:43:24.370Z,4.87
2019-04-11T22:45:49.315Z,4.80
2019-04-11T22:48:21.324Z,4.70
2019-04-11T22:50:50.659Z,4.72
2019-04-11T22:53:20.007Z,4.95
2019-04-11T22:55:49.319Z,4.62
2019-04-11T22:58:18.628Z,4.87
2019-04-11T23:00:47.988Z,4.92
2019-04-11T23:03:21.964Z,4.70
2019-04-11T23:05:51.295Z,4.85
2019-04-11T23:08:20.623Z,5.30
2019-04-11T23:10:50.020Z,4.83
2019-04-11T23:13:19.354Z,5.30
2019-04-11T23:15:48.687Z,5.40
2019-04-11T23:18:18.027Z,5.22
2019-04-11T23:20:47.432Z,4.65
2019-04-11T23:23:16.772Z,5.50
2019-04-11T23:25:46.223Z,5.60
2019-04-11T23:28:16.505Z,5.25
2019-04-11T23:30:50.368Z,5.37
2019-04-11T23:33:18.975Z,5.12
2019-04-11T23:35:51.190Z,5.67
2019-04-11T23:38:23.943Z,5.70
2019-04-11T23:40:53.898Z,4.95
2019-04-11T23:43:23.320Z,5.50
2019-04-11T23:45:53.366Z,5.97
2019-04-11T23:48:24.033Z,5.40
2019-04-11T23:50:56.554Z,5.47
2019-04-11T23:53:29.121Z,5.97
2019-04-11T23:56:00.295Z,5.20
2019-04-11T23:58:31.770Z,5.97
